createdAt,value
2023-02-19T00:00:15.201Z,9.71
2023-02-19T00:02:42.775Z,9.68
2023-02-19T00:05:09.702Z,9.69
2023-02-19T00:07:36.729Z,9.64
2023-02-19T00:10:03.695Z,9.62
2023-02-19T00:12:30.603Z,9.56
2023-02-19T00:14:58.969Z,9.53
2023-02-19T00:17:26.085Z,9.48
2023-02-19T00:19:53.122Z,9.41
2023-02-19T00:22:20.048Z,9.28
2023-02-19T00:24:49.302Z,9.10
2023-02-19T00:27:16.336Z,9.02
2023-02-19T00:29:43.487Z,8.96
2023-02-19T00:32:12.603Z,8.93
2023-02-19T00:34:39.860Z,8.91
2023-02-19T00:37:06.990Z,8.91
2023-02-19T00:39:33.926Z,8.87
2023-02-19T00:42:00.949Z,8.87
2023-02-19T00:44:27.919Z,8.85
2023-02-19T00:46:54.888Z,8.87
2023-02-19T00:49:24.423Z,8.87
2023-02-19T00:51:52.645Z,8.85
2023-02-19T00:54:20.493Z,8.85
2023-02-19T00:56:47.499Z,8.86
2023-02-19T00:59:14.852Z,8.83
2023-02-19T01:01:42.634Z,8.82
2023-02-19T01:04:11.532Z,8.86
2023-02-19T01:06:39.842Z,8.91
2023-02-19T01:09:07.890Z,8.93
2023-02-19T01:11:35.199Z,8.93
2023-02-19T01:14:03.605Z,8.89
2023-02-19T01:16:31.097Z,8.86
2023-02-19T01:18:58.525Z,8.86
2023-02-19T01:21:28.076Z,8.85
2023-02-19T01:23:57.026Z,8.85
2023-02-19T01:26:27.815Z,8.87
2023-02-19T01:28:54.995Z,8.90
2023-02-19T01:31:27.035Z,8.94
2023-02-19T01:33:55.932Z,8.98
2023-02-19T01:36:23.875Z,9.01
2023-02-19T01:38:51.040Z,9.02
2023-02-19T01:41:22.108Z,9.02
2023-02-19T01:44:01.525Z,9.01
2023-02-19T01:46:30.149Z,9.02
2023-02-19T01:49:00.404Z,9.03
2023-02-19T01:51:28.779Z,9.03
2023-02-19T01:53:58.341Z,9.04
2023-02-19T01:56:28.018Z,9.05
2023-02-19T01:58:55.398Z,9.04
2023-02-19T02:01:22.556Z,9.05
2023-02-19T02:03:52.063Z,9.06
2023-02-19T02:06:23.862Z,9.06
2023-02-19T02:09:11.700Z,9.03
2023-02-19T02:11:44.329Z,9.01
2023-02-19T02:14:12.103Z,8.96
2023-02-19T02:16:46.452Z,8.96
2023-02-19T02:19:30.900Z,8.89
2023-02-19T02:22:07.609Z,8.86
2023-02-19T02:24:53.220Z,8.82
2023-02-19T02:27:34.488Z,8.75
2023-02-19T02:30:15.404Z,8.54
2023-02-19T02:32:53.480Z,8.41
2023-02-19T02:35:25.007Z,8.37
2023-02-19T02:37:55.352Z,8.34
2023-02-19T02:40:22.636Z,8.34
2023-02-19T02:42:49.617Z,8.34
2023-02-19T02:45:35.569Z,8.32
2023-02-19T02:48:28.836Z,8.30
2023-02-19T02:51:05.701Z,8.25
2023-02-19T02:54:04.068Z,8.20
2023-02-19T02:56:31.743Z,8.15
2023-02-19T02:59:04.245Z,8.11
2023-02-19T03:01:56.838Z,7.96
2023-02-19T03:04:29.647Z,7.80
2023-02-19T03:07:00.093Z,7.70
2023-02-19T03:09:40.695Z,7.70
2023-02-19T03:12:32.254Z,7.58
2023-02-19T03:15:23.250Z,7.43
2023-02-19T03:18:17.850Z,7.32
2023-02-19T03:20:48.439Z,7.33
2023-02-19T03:23:17.521Z,7.33
2023-02-19T03:26:03.511Z,7.35
2023-02-19T03:29:06.788Z,7.39
2023-02-19T03:31:38.208Z,7.31
2023-02-19T03:34:10.209Z,7.27
2023-02-19T03:36:42.382Z,7.29
2023-02-19T03:39:12.781Z,7.32
2023-02-19T03:41:45.160Z,7.33
2023-02-19T03:44:18.266Z,7.35
2023-02-19T03:46:50.929Z,7.34
2023-02-19T03:49:27.424Z,7.29
2023-02-19T03:52:01.280Z,7.22
2023-02-19T03:54:35.312Z,7.17
2023-02-19T03:57:08.417Z,7.17
2023-02-19T03:59:41.941Z,7.18
2023-02-19T04:02:13.353Z,7.23
2023-02-19T04:04:45.703Z,7.18
2023-02-19T04:07:13.268Z,7.18
2023-02-19T04:09:45.641Z,7.19
2023-02-19T04:12:19.075Z,7.23
2023-02-19T04:14:52.592Z,7.25
2023-02-19T04:17:24.439Z,7.26
2023-02-19T04:19:54.589Z,7.21
2023-02-19T04:22:22.644Z,7.21
2023-02-19T04:24:52.236Z,7.22
2023-02-19T04:27:19.683Z,7.26
2023-02-19T04:29:46.910Z,7.31
2023-02-19T04:32:14.301Z,7.33
2023-02-19T04:34:41.282Z,7.37
2023-02-19T04:37:09.575Z,7.39
2023-02-19T04:39:36.523Z,7.35
2023-02-19T04:42:03.521Z,7.33
2023-02-19T04:44:30.464Z,7.30
2023-02-19T04:46:57.401Z,7.30
2023-02-19T04:49:24.323Z,7.36
2023-02-19T04:51:51.190Z,7.39
2023-02-19T04:54:19.460Z,7.45
2023-02-19T04:56:46.421Z,7.54
2023-02-19T04:59:13.527Z,7.61
2023-02-19T05:01:40.485Z,7.67
2023-02-19T05:04:07.440Z,7.72
2023-02-19T05:06:34.465Z,7.88
2023-02-19T05:09:01.374Z,8.06
2023-02-19T05:11:29.755Z,8.19
2023-02-19T05:13:56.902Z,8.34
2023-02-19T05:16:23.913Z,8.53
2023-02-19T05:18:50.832Z,8.71
2023-02-19T05:21:17.778Z,8.96
2023-02-19T05:23:44.767Z,9.11
2023-02-19T05:26:17.110Z,9.24
2023-02-19T05:28:45.547Z,9.35
2023-02-19T05:31:13.218Z,9.56
2023-02-19T05:33:42.510Z,9.85
2023-02-19T05:36:11.513Z,10.11
2023-02-19T05:38:39.442Z,10.36
2023-02-19T05:41:11.744Z,10.55
2023-02-19T05:43:39.309Z,10.63
2023-02-19T05:46:08.319Z,10.69
2023-02-19T05:48:35.801Z,10.76
2023-02-19T05:51:03.956Z,10.82
2023-02-19T05:53:30.994Z,10.93
2023-02-19T05:55:58.157Z,11.06
2023-02-19T05:58:27.817Z,11.20
2023-02-19T06:00:55.488Z,11.28
2023-02-19T06:03:23.971Z,11.36
2023-02-19T06:05:51.262Z,11.38
2023-02-19T06:08:18.314Z,11.42
2023-02-19T06:10:45.434Z,11.58
2023-02-19T06:13:12.377Z,11.76
2023-02-19T06:15:39.498Z,11.94
2023-02-19T06:18:06.503Z,12.02
2023-02-19T06:20:34.852Z,12.11
2023-02-19T06:23:01.808Z,12.23
2023-02-19T06:25:28.743Z,12.38
2023-02-19T06:27:55.748Z,12.59
2023-02-19T06:30:22.781Z,12.83
2023-02-19T06:32:52.765Z,13.10
2023-02-19T06:35:19.898Z,13.34
2023-02-19T06:37:48.372Z,13.54
2023-02-19T06:40:15.772Z,13.72
2023-02-19T06:42:42.792Z,13.81
2023-02-19T06:45:09.816Z,13.95
2023-02-19T06:47:36.751Z,14.03
2023-02-19T06:50:03.775Z,14.15
2023-02-19T06:52:30.676Z,14.29
2023-02-19T06:54:58.972Z,14.43
2023-02-19T06:57:25.873Z,14.60
2023-02-19T06:59:52.765Z,14.74
2023-02-19T07:02:19.677Z,14.83
2023-02-19T07:04:46.581Z,14.98
2023-02-19T07:07:13.522Z,14.99
2023-02-19T07:09:40.435Z,14.97
2023-02-19T07:12:10.101Z,14.96
2023-02-19T07:14:37.041Z,15.03
2023-02-19T07:17:04.042Z,15.29
2023-02-19T07:19:30.958Z,15.44
2023-02-19T07:21:57.853Z,15.52
2023-02-19T07:24:24.782Z,15.68
2023-02-19T07:26:51.709Z,15.91
2023-02-19T07:29:20.044Z,15.99
2023-02-19T07:31:46.994Z,16.05
2023-02-19T07:34:13.962Z,16.21
2023-02-19T07:36:41.040Z,16.37
2023-02-19T07:39:10.134Z,16.38
2023-02-19T07:41:37.403Z,16.48
2023-02-19T07:44:06.250Z,16.62
2023-02-19T07:46:34.737Z,16.52
2023-02-19T07:49:01.637Z,16.50
2023-02-19T07:51:28.586Z,16.54
2023-02-19T07:53:55.575Z,16.65
2023-02-19T07:56:22.495Z,16.80
2023-02-19T07:58:49.563Z,16.93
2023-02-19T08:01:18.917Z,16.99
2023-02-19T08:03:50.327Z,17.15
2023-02-19T08:06:17.498Z,17.34
2023-02-19T08:08:44.404Z,17.52
2023-02-19T08:11:30.036Z,17.45
2023-02-19T08:13:56.764Z,17.48
2023-02-19T08:16:40.725Z,17.59
2023-02-19T08:19:11.145Z,17.75
2023-02-19T08:21:38.079Z,17.92
2023-02-19T08:24:05.753Z,18.05
2023-02-19T08:26:33.027Z,17.89
2023-02-19T08:29:00.017Z,17.88
2023-02-19T08:31:27.336Z,18.17
2023-02-19T08:33:55.079Z,18.26
2023-02-19T08:36:23.390Z,18.37
2023-02-19T08:38:50.386Z,18.12
2023-02-19T08:41:17.377Z,18.10
2023-02-19T08:43:44.287Z,18.33
2023-02-19T08:46:12.841Z,18.46
2023-02-19T08:48:40.669Z,18.39
2023-02-19T08:51:09.791Z,18.69
2023-02-19T08:53:40.791Z,18.80
2023-02-19T08:56:09.017Z,18.70
2023-02-19T08:58:37.446Z,18.38
2023-02-19T09:01:09.000Z,18.45
2023-02-19T09:03:36.688Z,18.57
2023-02-19T09:06:04.122Z,18.66
2023-02-19T09:08:31.349Z,18.46
2023-02-19T09:11:00.407Z,18.25
2023-02-19T09:13:27.720Z,18.14
2023-02-19T09:15:54.770Z,18.34
2023-02-19T09:18:21.746Z,18.64
2023-02-19T09:20:48.709Z,18.89
2023-02-19T09:23:15.602Z,19.09
2023-02-19T09:25:42.540Z,19.30
2023-02-19T09:28:10.863Z,19.28
2023-02-19T09:30:37.843Z,19.25
2023-02-19T09:33:05.189Z,19.38
2023-02-19T09:35:32.116Z,19.56
2023-02-19T09:37:59.627Z,19.67
2023-02-19T09:40:26.714Z,19.85
2023-02-19T09:42:53.653Z,20.07
2023-02-19T09:45:24.787Z,20.15
2023-02-19T09:47:55.082Z,20.23
2023-02-19T09:50:31.792Z,20.27
2023-02-19T09:53:03.188Z,20.44
2023-02-19T09:55:34.582Z,20.38
2023-02-19T09:58:07.814Z,20.36
2023-02-19T10:00:37.555Z,20.27
2023-02-19T10:03:10.577Z,20.41
2023-02-19T10:05:39.902Z,20.38
2023-02-19T10:08:12.809Z,20.34
2023-02-19T10:10:41.184Z,20.33
2023-02-19T10:13:18.363Z,20.39
2023-02-19T10:15:48.951Z,20.58
2023-02-19T10:18:22.573Z,20.70
2023-02-19T10:20:52.151Z,20.84
2023-02-19T10:23:20.283Z,20.96
2023-02-19T10:25:49.846Z,20.97
2023-02-19T10:28:19.271Z,21.01
2023-02-19T10:30:52.779Z,21.14
2023-02-19T10:33:20.281Z,21.13
2023-02-19T10:35:56.287Z,21.17
2023-02-19T10:38:28.350Z,21.34
2023-02-19T10:41:06.028Z,21.33
2023-02-19T10:43:37.032Z,21.20
2023-02-19T10:46:08.572Z,21.21
2023-02-19T10:48:38.420Z,21.23
2023-02-19T10:51:08.694Z,21.37
2023-02-19T10:53:41.484Z,21.47
2023-02-19T10:56:10.626Z,21.61
2023-02-19T10:58:40.161Z,21.67
2023-02-19T11:01:27.124Z,21.62
2023-02-19T11:04:15.370Z,21.53
2023-02-19T11:06:42.359Z,21.51
2023-02-19T11:09:24.959Z,21.65
2023-02-19T11:11:53.356Z,21.77
2023-02-19T11:14:24.244Z,21.75
2023-02-19T11:16:57.671Z,21.78
2023-02-19T11:19:29.015Z,21.85
2023-02-19T11:21:56.917Z,21.92
2023-02-19T11:24:29.496Z,22.09
2023-02-19T11:26:57.250Z,22.06
2023-02-19T11:29:28.687Z,22.02
2023-02-19T11:31:57.368Z,22.02
2023-02-19T11:34:30.129Z,21.96
2023-02-19T11:37:11.901Z,22.06
2023-02-19T11:39:41.159Z,21.88
2023-02-19T11:42:22.959Z,21.50
2023-02-19T11:45:03.155Z,21.24
2023-02-19T11:47:55.496Z,21.36
2023-02-19T11:50:27.639Z,21.37
2023-02-19T11:53:04.892Z,21.31
2023-02-19T11:55:46.413Z,21.25
2023-02-19T11:58:42.822Z,21.29
2023-02-19T12:01:20.307Z,21.12
2023-02-19T12:04:07.909Z,20.87
2023-02-19T12:06:46.071Z,20.90
2023-02-19T12:09:22.381Z,20.79
2023-02-19T12:12:05.908Z,20.57
2023-02-19T12:15:00.523Z,20.48
2023-02-19T12:17:57.313Z,20.42
2023-02-19T12:20:34.695Z,20.44
2023-02-19T12:23:26.127Z,20.39
2023-02-19T12:25:59.426Z,20.45
2023-02-19T12:28:38.189Z,20.49
2023-02-19T12:31:19.963Z,20.40
2023-02-19T12:34:04.267Z,20.39
2023-02-19T12:36:42.396Z,20.51
2023-02-19T12:39:22.846Z,20.51
2023-02-19T12:41:58.816Z,20.52
2023-02-19T12:44:36.117Z,20.54
2023-02-19T12:47:06.740Z,20.61
2023-02-19T12:49:37.744Z,20.75
2023-02-19T12:52:11.268Z,20.78
2023-02-19T12:54:40.499Z,20.81
2023-02-19T12:57:13.619Z,20.88
2023-02-19T12:59:46.033Z,20.95
2023-02-19T13:02:18.783Z,21.00
2023-02-19T13:04:53.871Z,21.17
2023-02-19T13:07:26.050Z,21.33
2023-02-19T13:09:58.415Z,21.42
2023-02-19T13:12:29.184Z,21.50
2023-02-19T13:14:59.105Z,21.38
2023-02-19T13:17:32.067Z,21.15
2023-02-19T13:20:05.361Z,20.88
2023-02-19T13:22:59.295Z,20.63
2023-02-19T13:25:40.132Z,20.34
2023-02-19T13:28:16.712Z,20.01
2023-02-19T13:31:13.193Z,19.79
2023-02-19T13:33:48.271Z,19.83
2023-02-19T13:36:20.413Z,19.82
2023-02-19T13:38:50.373Z,19.84
2023-02-19T13:41:28.847Z,19.94
2023-02-19T13:43:59.434Z,20.00
2023-02-19T13:46:35.998Z,20.07
2023-02-19T13:49:45.533Z,20.16
2023-02-19T13:52:40.656Z,20.27
2023-02-19T13:55:42.075Z,20.38
2023-02-19T13:58:55.042Z,20.44
2023-02-19T14:01:55.502Z,20.42
2023-02-19T14:04:26.346Z,20.23
2023-02-19T14:07:37.368Z,20.04
2023-02-19T14:10:11.308Z,19.89
2023-02-19T14:12:38.499Z,19.77
2023-02-19T14:15:44.211Z,19.54
2023-02-19T14:18:47.548Z,19.47
2023-02-19T14:21:22.408Z,19.26
2023-02-19T14:23:53.101Z,19.15
2023-02-19T14:26:21.195Z,19.11
2023-02-19T14:28:49.832Z,18.98
2023-02-19T14:31:25.166Z,18.87
2023-02-19T14:33:53.658Z,18.69
2023-02-19T14:36:31.217Z,18.59
2023-02-19T14:39:02.051Z,18.55
2023-02-19T14:41:32.453Z,18.55
2023-02-19T14:44:02.224Z,18.45
2023-02-19T14:46:31.523Z,18.40
2023-02-19T14:49:03.908Z,18.34
2023-02-19T14:51:36.581Z,18.29
2023-02-19T14:54:13.073Z,18.21
2023-02-19T14:56:45.799Z,18.15
2023-02-19T14:59:25.272Z,18.11
2023-02-19T15:01:57.589Z,18.01
2023-02-19T15:04:26.440Z,17.95
2023-02-19T15:06:57.132Z,17.90
2023-02-19T15:09:31.133Z,17.84
2023-02-19T15:11:58.432Z,17.79
2023-02-19T15:14:28.708Z,17.74
2023-02-19T15:16:59.811Z,17.69
2023-02-19T15:19:28.330Z,17.68
2023-02-19T15:21:57.096Z,17.64
2023-02-19T15:24:24.505Z,17.62
2023-02-19T15:26:54.206Z,17.55
2023-02-19T15:29:23.213Z,17.53
2023-02-19T15:31:52.604Z,17.50
2023-02-19T15:34:22.126Z,17.46
2023-02-19T15:36:50.689Z,17.39
2023-02-19T15:39:25.061Z,17.34
2023-02-19T15:41:55.578Z,17.29
2023-02-19T15:44:39.333Z,17.26
2023-02-19T15:47:13.920Z,17.23
2023-02-19T15:49:48.080Z,17.17
2023-02-19T15:52:25.502Z,17.10
2023-02-19T15:54:59.555Z,17.02
2023-02-19T15:57:40.601Z,16.97
2023-02-19T16:00:15.663Z,16.93
2023-02-19T16:02:43.169Z,16.87
2023-02-19T16:05:17.910Z,16.76
2023-02-19T16:07:47.685Z,16.66
2023-02-19T16:10:24.137Z,16.56
2023-02-19T16:12:58.788Z,16.49
2023-02-19T16:15:27.371Z,16.46
2023-02-19T16:17:55.124Z,16.40
2023-02-19T16:20:25.799Z,16.40
2023-02-19T16:22:57.830Z,16.35
2023-02-19T16:25:33.573Z,16.31
2023-02-19T16:28:12.872Z,16.30
2023-02-19T16:30:40.060Z,16.30
2023-02-19T16:33:24.756Z,16.30
2023-02-19T16:35:52.583Z,16.28
2023-02-19T16:38:21.033Z,16.24
2023-02-19T16:41:11.399Z,16.19
2023-02-19T16:43:40.824Z,16.12
2023-02-19T16:46:11.796Z,16.09
2023-02-19T16:48:38.986Z,16.06
2023-02-19T16:51:07.377Z,16.03
2023-02-19T16:53:34.836Z,16.00
2023-02-19T16:56:01.984Z,15.97
2023-02-19T16:58:32.322Z,15.95
2023-02-19T17:00:59.607Z,15.93
2023-02-19T17:03:26.680Z,15.91
2023-02-19T17:05:53.690Z,15.88
2023-02-19T17:08:31.378Z,15.84
2023-02-19T17:11:00.463Z,15.82
2023-02-19T17:13:27.501Z,15.80
2023-02-19T17:15:55.881Z,15.81
2023-02-19T17:18:23.168Z,15.82
2023-02-19T17:20:54.598Z,15.81
2023-02-19T17:23:22.997Z,15.76
2023-02-19T17:25:51.709Z,15.69
2023-02-19T17:28:19.028Z,15.61
2023-02-19T17:30:45.989Z,15.54
2023-02-19T17:33:14.477Z,15.51
2023-02-19T17:35:42.442Z,15.45
2023-02-19T17:38:10.551Z,15.45
2023-02-19T17:40:38.245Z,15.43
2023-02-19T17:43:05.863Z,15.40
2023-02-19T17:45:33.746Z,15.41
2023-02-19T17:48:00.817Z,15.39
2023-02-19T17:50:31.083Z,15.35
2023-02-19T17:52:58.783Z,15.34
2023-02-19T17:55:25.934Z,15.32
2023-02-19T17:57:53.293Z,15.26
2023-02-19T18:00:22.520Z,15.20
2023-02-19T18:02:49.607Z,15.14
2023-02-19T18:05:16.707Z,15.09
2023-02-19T18:07:45.672Z,15.03
2023-02-19T18:10:13.628Z,15.01
2023-02-19T18:12:40.869Z,14.99
2023-02-19T18:15:11.273Z,14.97
2023-02-19T18:17:38.301Z,14.94
2023-02-19T18:20:06.669Z,14.91
2023-02-19T18:22:33.763Z,14.89
2023-02-19T18:25:02.064Z,14.87
2023-02-19T18:27:28.983Z,14.87
2023-02-19T18:29:56.457Z,14.83
2023-02-19T18:32:24.838Z,14.81
2023-02-19T18:34:53.345Z,14.80
2023-02-19T18:37:20.674Z,14.79
2023-02-19T18:39:47.952Z,14.76
2023-02-19T18:42:16.701Z,14.54
2023-02-19T18:44:46.885Z,14.41
2023-02-19T18:47:13.960Z,14.40
2023-02-19T18:49:44.901Z,14.41
2023-02-19T18:52:12.365Z,14.41
2023-02-19T18:54:39.666Z,14.40
2023-02-19T18:57:07.476Z,14.39
2023-02-19T18:59:35.835Z,14.40
2023-02-19T19:02:05.067Z,14.42
2023-02-19T19:04:32.174Z,14.39
2023-02-19T19:06:59.145Z,14.36
2023-02-19T19:09:26.043Z,14.34
2023-02-19T19:11:53.126Z,14.34
2023-02-19T19:14:20.121Z,14.37
2023-02-19T19:16:48.895Z,14.38
2023-02-19T19:19:16.309Z,14.38
2023-02-19T19:21:43.219Z,14.35
2023-02-19T19:24:10.224Z,14.34
2023-02-19T19:26:44.110Z,14.35
2023-02-19T19:29:11.616Z,14.37
2023-02-19T19:31:38.727Z,14.38
2023-02-19T19:34:07.107Z,14.41
2023-02-19T19:36:34.406Z,14.37
2023-02-19T19:39:01.356Z,14.32
2023-02-19T19:41:28.328Z,14.26
2023-02-19T19:43:55.464Z,14.20
2023-02-19T19:46:22.479Z,14.16
2023-02-19T19:48:50.816Z,14.08
2023-02-19T19:51:19.206Z,14.02
2023-02-19T19:53:47.488Z,14.00
2023-02-19T19:56:14.776Z,13.95
2023-02-19T19:58:41.938Z,13.94
2023-02-19T20:01:09.031Z,13.92
2023-02-19T20:03:38.320Z,13.91
2023-02-19T20:06:05.821Z,13.92
2023-02-19T20:08:34.124Z,13.88
2023-02-19T20:11:01.052Z,13.84
2023-02-19T20:13:30.500Z,13.81
2023-02-19T20:15:57.902Z,13.82
2023-02-19T20:18:26.013Z,13.79
2023-02-19T20:20:52.937Z,13.79
2023-02-19T20:23:19.945Z,13.78
2023-02-19T20:25:48.252Z,13.81
2023-02-19T20:28:15.340Z,13.82
2023-02-19T20:30:43.756Z,13.85
2023-02-19T20:33:10.860Z,13.85
2023-02-19T20:35:37.917Z,13.88
2023-02-19T20:38:04.816Z,13.91
2023-02-19T20:40:32.789Z,13.90
2023-02-19T20:43:03.036Z,13.92
2023-02-19T20:45:31.433Z,13.93
2023-02-19T20:47:58.461Z,13.98
2023-02-19T20:50:26.341Z,13.99
2023-02-19T20:52:53.569Z,14.01
2023-02-19T20:55:20.796Z,14.05
2023-02-19T20:57:47.713Z,14.07
2023-02-19T21:00:17.142Z,14.05
2023-02-19T21:02:44.940Z,14.05
2023-02-19T21:05:11.965Z,14.01
2023-02-19T21:07:38.926Z,13.93
2023-02-19T21:10:06.748Z,13.85
2023-02-19T21:12:33.921Z,13.84
2023-02-19T21:15:00.865Z,13.82
2023-02-19T21:17:29.163Z,13.83
2023-02-19T21:19:56.158Z,13.79
2023-02-19T21:22:23.144Z,13.79
2023-02-19T21:24:52.038Z,13.77
2023-02-19T21:27:19.445Z,13.75
2023-02-19T21:29:46.680Z,13.74
2023-02-19T21:32:13.801Z,13.73
2023-02-19T21:34:42.470Z,13.69
2023-02-19T21:37:09.448Z,13.69
2023-02-19T21:39:36.525Z,13.65
2023-02-19T21:42:03.910Z,13.68
2023-02-19T21:44:30.829Z,13.67
2023-02-19T21:46:58.124Z,13.65
2023-02-19T21:49:25.101Z,13.58
2023-02-19T21:51:53.423Z,13.54
2023-02-19T21:54:24.738Z,13.51
2023-02-19T21:56:52.582Z,13.50
2023-02-19T21:59:20.954Z,13.51
2023-02-19T22:01:48.162Z,13.47
2023-02-19T22:04:16.936Z,13.44
2023-02-19T22:06:44.241Z,13.46
2023-02-19T22:09:13.923Z,13.45
2023-02-19T22:11:40.925Z,13.46
2023-02-19T22:14:07.970Z,13.50
2023-02-19T22:16:34.968Z,13.49
2023-02-19T22:19:01.901Z,13.46
2023-02-19T22:21:33.442Z,13.43
2023-02-19T22:24:01.619Z,13.42
2023-02-19T22:26:32.382Z,13.43
2023-02-19T22:28:59.793Z,13.45
2023-02-19T22:31:27.768Z,13.38
2023-02-19T22:33:56.503Z,13.38
2023-02-19T22:36:25.257Z,13.37
2023-02-19T22:38:53.023Z,13.40
2023-02-19T22:41:20.626Z,13.37
2023-02-19T22:43:49.971Z,13.35
2023-02-19T22:46:19.731Z,13.32
2023-02-19T22:48:47.209Z,13.26
2023-02-19T22:51:16.970Z,13.23
2023-02-19T22:53:45.249Z,13.20
2023-02-19T22:56:12.950Z,13.16
2023-02-19T22:58:40.356Z,13.16
2023-02-19T23:01:09.021Z,13.16
2023-02-19T23:03:45.405Z,13.13
2023-02-19T23:06:12.617Z,13.09
2023-02-19T23:08:39.714Z,13.03
2023-02-19T23:11:06.698Z,13.03
2023-02-19T23:13:33.635Z,13.01
2023-02-19T23:16:00.997Z,12.94
2023-02-19T23:18:29.279Z,12.90
2023-02-19T23:20:56.241Z,12.85
2023-02-19T23:23:23.153Z,12.81
2023-02-19T23:25:50.062Z,12.77
2023-02-19T23:28:16.998Z,12.69
2023-02-19T23:30:44.019Z,12.64
2023-02-19T23:33:10.992Z,12.61
2023-02-19T23:35:39.281Z,12.56
2023-02-19T23:38:06.275Z,12.54
2023-02-19T23:40:33.277Z,12.46
2023-02-19T23:43:00.502Z,12.38
2023-02-19T23:45:27.477Z,12.34
2023-02-19T23:47:54.427Z,12.28
2023-02-19T23:50:21.463Z,12.23
2023-02-19T23:52:50.145Z,12.23
2023-02-19T23:55:17.150Z,12.17
2023-02-19T23:57:44.072Z,12.13
